createdAt,value
2023-04-14T00:02:22.213Z,98490.97
2023-04-14T00:05:24.287Z,98486.73
2023-04-14T00:08:25.928Z,98486.48
2023-04-14T00:11:27.669Z,98493.48
2023-04-14T00:21:10.266Z,98498.74
2023-04-14T00:24:12.113Z,98501.84
2023-04-14T00:27:13.797Z,98507.91
2023-04-14T00:30:16.079Z,98505.85
2023-04-14T00:33:17.698Z,98496.39
2023-04-14T00:36:19.428Z,98492.59
2023-04-14T00:39:21.286Z,98484.46
2023-04-14T00:42:23.142Z,98479.80
2023-04-14T00:45:24.891Z,98485.67
2023-04-14T00:48:26.554Z,98492.17
2023-04-14T00:51:28.365Z,98496.23
2023-04-14T00:54:30.891Z,98489.36
2023-04-14T00:57:32.585Z,98483.22
2023-04-14T01:00:34.595Z,98479.57
2023-04-14T01:03:36.426Z,98474.55
2023-04-14T01:06:38.254Z,98473.80
2023-04-14T01:09:39.915Z,98471.05
2023-04-14T01:12:59.997Z,98462.31
2023-04-14T01:16:05.340Z,98455.44
2023-04-14T01:19:41.512Z,98462.02
2023-04-14T01:22:49.833Z,98470.93
2023-04-14T01:26:13.571Z,98475.33
2023-04-14T01:29:36.175Z,98473.55
2023-04-14T01:32:44.477Z,98462.20
2023-04-14T01:35:50.326Z,98453.89
2023-04-14T01:38:53.301Z,98450.64
2023-04-14T01:41:57.144Z,98440.61
2023-04-14T01:45:04.425Z,98433.09
2023-04-14T01:48:06.729Z,98435.36
2023-04-14T01:51:09.471Z,98432.65
2023-04-14T01:54:11.729Z,98422.36
2023-04-14T01:57:14.917Z,98413.63
2023-04-14T02:00:20.869Z,98413.77
2023-04-14T02:03:23.629Z,98416.65
2023-04-14T02:06:25.861Z,98415.64
2023-04-14T02:09:28.991Z,98422.02
2023-04-14T02:12:30.924Z,98417.23
2023-04-14T02:15:33.490Z,98419.85
2023-04-14T02:18:35.675Z,98426.14
2023-04-14T02:21:38.160Z,98431.05
2023-04-14T02:24:39.857Z,98430.36
2023-04-14T02:27:53.002Z,98431.46
2023-04-14T02:30:56.398Z,98425.77
2023-04-14T02:33:59.147Z,98420.51
2023-04-14T02:37:04.165Z,98411.88
2023-04-14T02:40:16.056Z,98404.09
2023-04-14T02:43:20.859Z,98404.73
2023-04-14T02:46:23.922Z,98403.61
2023-04-14T02:49:25.932Z,98402.56
2023-04-14T02:52:28.268Z,98397.04
2023-04-14T02:55:31.090Z,98394.25
2023-04-14T02:58:33.257Z,98397.55
2023-04-14T03:01:35.968Z,98401.41
2023-04-14T03:04:38.722Z,98400.27
2023-04-14T03:07:42.469Z,98396.06
2023-04-14T03:10:45.767Z,98398.38
2023-04-14T03:13:49.351Z,98397.07
2023-04-14T03:16:53.503Z,98391.29
2023-04-14T03:19:56.168Z,98390.77
2023-04-14T03:23:01.836Z,98390.42
2023-04-14T03:26:03.831Z,98392.99
2023-04-14T03:29:05.991Z,98392.09
2023-04-14T03:32:09.238Z,98385.17
2023-04-14T03:35:11.491Z,98385.16
2023-04-14T03:38:15.716Z,98387.20
2023-04-14T03:41:18.309Z,98387.17
2023-04-14T03:44:20.124Z,98383.67
2023-04-14T03:47:21.801Z,98382.90
2023-04-14T03:50:27.269Z,98382.84
2023-04-14T03:53:33.359Z,98383.02
2023-04-14T03:56:35.609Z,98371.65
2023-04-14T03:59:39.379Z,98373.55
2023-04-14T04:02:42.993Z,98375.15
2023-04-14T04:05:45.508Z,98376.20
2023-04-14T04:08:48.452Z,98380.26
2023-04-14T04:11:52.261Z,98381.23
2023-04-14T04:14:53.897Z,98380.38
2023-04-14T04:17:55.678Z,98383.09
2023-04-14T04:20:57.374Z,98386.95
2023-04-14T04:24:00.862Z,98388.88
2023-04-14T04:27:02.645Z,98394.02
2023-04-14T04:30:08.228Z,98391.02
2023-04-14T04:33:10.780Z,98386.96
2023-04-14T04:36:13.318Z,98392.59
2023-04-14T04:39:15.054Z,98394.37
2023-04-14T04:42:16.712Z,98397.29
2023-04-14T04:45:20.795Z,98397.23
2023-04-14T04:48:22.421Z,98399.21
2023-04-14T04:51:23.923Z,98393.72
2023-04-14T04:54:25.546Z,98392.55
2023-04-14T04:57:27.162Z,98394.09
2023-04-14T05:00:28.840Z,98392.98
2023-04-14T05:03:30.398Z,98393.71
2023-04-14T05:06:35.181Z,98390.14
2023-04-14T05:09:37.017Z,98388.00
2023-04-14T05:12:38.812Z,98390.20
2023-04-14T05:15:40.469Z,98386.43
2023-04-14T05:18:43.167Z,98385.71
2023-04-14T05:21:44.792Z,98380.27
2023-04-14T05:24:52.359Z,98377.33
2023-04-14T05:27:54.007Z,98370.63
2023-04-14T05:30:55.884Z,98366.79
2023-04-14T05:33:57.685Z,98355.66
2023-04-14T05:36:59.436Z,98354.61
2023-04-14T05:40:01.178Z,98344.14
2023-04-14T05:43:02.990Z,98342.79
2023-04-14T05:46:04.819Z,98338.42
2023-04-14T05:49:06.662Z,98332.16
2023-04-14T05:52:08.605Z,98329.79
2023-04-14T05:55:10.700Z,98330.77
2023-04-14T05:58:12.446Z,98321.33
2023-04-14T06:01:14.088Z,98317.56
2023-04-14T06:04:15.951Z,98310.87
2023-04-14T06:07:17.802Z,98310.47
2023-04-14T06:10:19.457Z,98310.78
2023-04-14T06:13:21.075Z,98311.63
2023-04-14T06:16:22.768Z,98311.64
2023-04-14T06:19:24.483Z,98302.55
2023-04-14T06:22:26.201Z,98307.31
2023-04-14T06:25:27.910Z,98310.98
2023-04-14T06:28:29.553Z,98306.05
2023-04-14T06:31:31.214Z,98307.54
2023-04-14T06:34:32.977Z,98314.70
2023-04-14T06:37:34.914Z,98311.83
2023-04-14T06:40:36.557Z,98315.52
2023-04-14T06:43:38.226Z,98315.53
2023-04-14T06:46:39.826Z,98310.95
2023-04-14T06:49:41.497Z,98304.60
2023-04-14T06:52:43.145Z,98300.13
2023-04-14T06:55:44.725Z,98298.71
2023-04-14T06:58:46.417Z,98295.48
2023-04-14T07:01:48.374Z,98288.49
2023-04-14T07:04:50.147Z,98280.52
2023-04-14T07:07:51.835Z,98273.27
2023-04-14T07:10:59.670Z,98272.80
2023-04-14T07:14:01.418Z,98263.08
2023-04-14T07:17:03.258Z,98256.67
2023-04-14T07:20:05.448Z,98255.86
2023-04-14T07:23:07.036Z,98249.55
2023-04-14T07:26:08.771Z,98247.69
2023-04-14T07:29:10.429Z,98248.35
2023-04-14T07:32:12.142Z,98244.69
2023-04-14T07:35:14.391Z,98245.19
2023-04-14T07:38:16.187Z,98244.48
2023-04-14T07:41:18.242Z,98253.23
2023-04-14T07:44:20.013Z,98255.92
2023-04-14T07:47:21.859Z,98257.63
2023-04-14T07:50:23.845Z,98258.02
2023-04-14T07:53:26.242Z,98250.31
2023-04-14T07:56:27.941Z,98248.25
2023-04-14T07:59:29.758Z,98240.29
2023-04-14T08:02:31.414Z,98254.39
2023-04-14T08:05:33.846Z,98254.59
2023-04-14T08:08:35.970Z,98249.99
2023-04-14T08:11:37.682Z,98245.66
2023-04-14T08:14:39.338Z,98237.89
2023-04-14T08:17:41.093Z,98233.13
2023-04-14T08:20:42.803Z,98231.98
2023-04-14T08:23:44.451Z,98223.75
2023-04-14T08:26:46.064Z,98219.60
2023-04-14T08:29:49.122Z,98214.49
2023-04-14T08:32:50.845Z,98211.98
2023-04-14T08:35:59.502Z,98213.07
2023-04-14T08:39:02.437Z,98209.12
2023-04-14T08:42:04.408Z,98200.41
2023-04-14T08:45:06.683Z,98195.07
2023-04-14T08:48:08.614Z,98188.71
2023-04-14T08:51:19.830Z,98184.93
2023-04-14T08:54:21.650Z,98185.25
2023-04-14T08:57:25.402Z,98189.34
2023-04-14T09:00:27.301Z,98187.23
2023-04-14T09:03:29.711Z,98193.27
2023-04-14T09:06:32.375Z,98189.27
2023-04-14T09:09:34.205Z,98187.86
2023-04-14T09:12:36.685Z,98181.15
2023-04-14T09:15:38.353Z,98179.19
2023-04-14T09:18:40.433Z,98180.84
2023-04-14T09:21:53.665Z,98184.56
2023-04-14T09:24:57.361Z,98181.67
2023-04-14T09:27:59.401Z,98176.79
2023-04-14T09:31:01.162Z,98175.32
2023-04-14T09:34:03.153Z,98169.43
2023-04-14T09:37:07.460Z,98171.15
2023-04-14T09:40:09.508Z,98171.02
2023-04-14T09:43:27.442Z,98170.30
2023-04-14T09:46:29.194Z,98165.54
2023-04-14T09:49:31.369Z,98163.36
2023-04-14T09:52:41.866Z,98163.80
2023-04-14T09:55:45.607Z,98169.78
2023-04-14T09:58:48.598Z,98165.74
2023-04-14T10:01:50.412Z,98166.33
2023-04-14T10:05:03.950Z,98162.12
2023-04-14T10:08:06.000Z,98155.14
2023-04-14T10:11:23.586Z,98152.92
2023-04-14T10:14:25.196Z,98146.27
2023-04-14T10:17:29.506Z,98144.30
2023-04-14T10:20:32.421Z,98145.97
2023-04-14T10:23:36.754Z,98139.82
2023-04-14T10:26:38.597Z,98142.55
2023-04-14T10:29:41.125Z,98129.38
2023-04-14T10:32:44.934Z,98127.70
2023-04-14T10:35:48.631Z,98129.19
2023-04-14T10:38:50.269Z,98118.63
2023-04-14T10:41:53.038Z,98114.80
2023-04-14T10:45:04.542Z,98109.41
2023-04-14T10:48:06.261Z,98103.91
2023-04-14T10:51:09.947Z,98102.36
2023-04-14T10:54:18.403Z,98103.06
2023-04-14T10:57:24.672Z,98089.31
2023-04-14T11:00:28.092Z,98087.91
2023-04-14T11:03:44.469Z,98078.88
2023-04-14T11:06:46.346Z,98089.14
2023-04-14T11:09:49.181Z,98085.90
2023-04-14T11:13:26.618Z,98080.70
2023-04-14T11:16:29.175Z,98081.48
2023-04-14T11:19:32.243Z,98079.88
2023-04-14T11:22:38.110Z,98084.52
2023-04-14T11:25:39.794Z,98075.92
2023-04-14T11:28:43.063Z,98073.10
2023-04-14T11:31:44.859Z,98057.83
2023-04-14T11:34:46.629Z,98068.30
2023-04-14T11:37:48.486Z,98070.35
2023-04-14T11:40:51.161Z,98068.72
2023-04-14T11:43:52.715Z,98066.52
2023-04-14T11:46:54.533Z,98076.27
2023-04-14T11:49:56.352Z,98073.58
2023-04-14T11:52:59.581Z,98070.14
2023-04-14T11:56:01.214Z,98069.19
2023-04-14T11:59:05.023Z,98066.30
2023-04-14T12:02:11.844Z,98060.26
2023-04-14T12:05:19.705Z,98059.08
2023-04-14T12:08:23.847Z,98053.54
2023-04-14T12:11:25.830Z,98052.56
2023-04-14T12:14:27.651Z,98051.90
2023-04-14T12:17:30.204Z,98042.91
2023-04-14T12:21:02.194Z,98039.98
2023-04-14T12:24:03.984Z,98048.52
2023-04-14T12:27:06.825Z,98039.05
2023-04-14T12:30:08.898Z,98031.38
2023-04-14T12:33:11.661Z,98030.19
2023-04-14T12:36:13.528Z,98024.17
2023-04-14T12:39:15.198Z,98023.90
2023-04-14T12:42:16.834Z,98021.48
2023-04-14T12:45:18.430Z,98015.70
2023-04-14T12:48:20.317Z,98021.13
2023-04-14T12:51:24.448Z,98013.67
2023-04-14T12:54:26.235Z,98003.92
2023-04-14T12:57:27.822Z,98003.03
2023-04-14T13:00:29.521Z,97993.51
2023-04-14T13:03:41.712Z,98001.89
2023-04-14T13:06:43.521Z,98000.95
2023-04-14T13:09:45.144Z,98003.58
2023-04-14T13:12:46.765Z,97994.08
2023-04-14T13:16:12.447Z,97995.90
2023-04-14T13:19:10.009Z,97990.48
2023-04-14T13:22:13.789Z,97989.54
2023-04-14T13:25:15.537Z,97981.91
2023-04-14T13:28:17.284Z,97978.40
2023-04-14T13:31:18.939Z,97977.01
2023-04-14T13:34:20.607Z,97975.61
2023-04-14T13:37:22.283Z,97973.02
2023-04-14T13:40:23.913Z,97977.54
2023-04-14T13:43:25.578Z,97968.89
2023-04-14T13:46:27.234Z,97974.17
2023-04-14T13:49:28.860Z,97968.31
2023-04-14T13:52:30.542Z,97964.25
2023-04-14T13:55:32.214Z,97950.52
2023-04-14T13:58:33.826Z,97950.85
2023-04-14T14:01:35.565Z,97955.38
2023-04-14T14:04:37.584Z,97952.07
2023-04-14T14:07:39.415Z,97949.34
2023-04-14T14:10:41.386Z,97945.73
2023-04-14T14:13:43.102Z,97946.40
2023-04-14T14:16:44.792Z,97948.52
2023-04-14T14:19:46.489Z,97949.24
2023-04-14T14:22:48.151Z,97947.36
2023-04-14T14:25:49.812Z,97947.18
2023-04-14T14:28:51.524Z,97947.36
2023-04-14T14:31:53.516Z,97949.63
2023-04-14T14:34:55.235Z,97950.48
2023-04-14T14:37:58.405Z,97950.61
2023-04-14T14:41:00.672Z,97953.20
2023-04-14T14:44:02.364Z,97960.05
2023-04-14T14:47:04.875Z,97961.44
2023-04-14T14:50:08.689Z,97958.46
2023-04-14T14:53:10.540Z,97959.54
2023-04-14T14:56:12.269Z,97966.96
2023-04-14T14:59:13.874Z,97965.35
2023-04-14T15:02:15.618Z,97964.14
2023-04-14T15:05:17.543Z,97961.86
2023-04-14T15:08:19.546Z,97962.41
2023-04-14T15:11:21.112Z,97964.06
2023-04-14T15:14:23.992Z,97955.00
2023-04-14T15:17:25.650Z,97953.00
2023-04-14T15:20:27.289Z,97947.81
2023-04-14T15:23:29.009Z,97951.91
2023-04-14T15:26:30.645Z,97947.83
2023-04-14T15:29:32.318Z,97950.75
2023-04-14T15:32:33.968Z,97949.56
2023-04-14T15:35:37.606Z,97951.73
2023-04-14T15:38:41.317Z,97951.23
2023-04-14T15:41:43.193Z,97948.35
2023-04-14T15:44:44.840Z,97950.83
2023-04-14T15:47:46.535Z,97954.71
2023-04-14T15:50:48.199Z,97961.50
2023-04-14T15:53:51.695Z,97958.03
2023-04-14T15:56:53.537Z,97957.09
2023-04-14T15:59:55.189Z,97955.45
2023-04-14T16:02:57.230Z,97949.73
2023-04-14T16:06:01.354Z,97954.46
2023-04-14T16:09:03.569Z,97950.98
2023-04-14T16:12:05.691Z,97950.12
2023-04-14T16:15:07.919Z,97953.50
2023-04-14T16:18:09.612Z,97955.13
2023-04-14T16:21:11.440Z,97955.61
2023-04-14T16:24:13.063Z,97957.20
2023-04-14T16:27:14.680Z,97958.52
2023-04-14T16:30:16.341Z,97953.13
2023-04-14T16:33:18.049Z,97954.30
2023-04-14T16:36:19.841Z,97956.48
2023-04-14T16:39:21.508Z,97953.80
2023-04-14T16:42:24.238Z,97954.92
2023-04-14T16:45:25.884Z,97956.84
2023-04-14T16:48:27.766Z,97958.71
2023-04-14T16:51:29.674Z,97957.02
2023-04-14T16:54:31.289Z,97956.84
2023-04-14T16:57:32.937Z,97958.91
2023-04-14T17:00:34.810Z,97962.18
2023-04-14T17:03:39.618Z,97964.87
2023-04-14T17:06:41.288Z,97967.88
2023-04-14T17:09:43.120Z,97968.98
2023-04-14T17:12:44.714Z,97972.48
2023-04-14T17:15:47.098Z,97973.17
2023-04-14T17:18:51.049Z,97975.29
2023-04-14T17:21:52.783Z,97977.73
2023-04-14T17:24:54.865Z,97977.73
2023-04-14T17:27:56.438Z,97977.64
2023-04-14T17:30:58.208Z,97981.40
2023-04-14T17:34:00.181Z,97981.54
2023-04-14T17:37:02.550Z,97986.11
2023-04-14T17:40:04.697Z,97987.98
2023-04-14T17:43:06.298Z,97988.70
2023-04-14T17:46:08.697Z,97989.62
2023-04-14T17:49:10.592Z,97991.38
2023-04-14T17:52:12.290Z,97995.52
2023-04-14T17:55:14.013Z,98000.52
2023-04-14T17:58:15.846Z,97999.00
2023-04-14T18:01:19.746Z,98005.05
2023-04-14T18:04:21.730Z,98007.70
2023-04-14T18:07:23.350Z,98014.45
2023-04-14T18:10:25.019Z,98019.52
2023-04-14T18:13:26.667Z,98025.27
2023-04-14T18:16:28.400Z,98025.92
2023-04-14T18:19:30.025Z,98036.98
2023-04-14T18:22:35.657Z,98041.24
2023-04-14T18:28:41.976Z,98045.23
2023-04-14T18:31:43.725Z,98045.37
2023-04-14T18:34:45.533Z,98048.46
2023-04-14T18:37:47.622Z,98049.98
2023-04-14T18:40:49.361Z,98049.48
2023-04-14T18:43:51.034Z,98048.61
2023-04-14T18:46:52.679Z,98047.83
2023-04-14T18:49:54.536Z,98054.09
2023-04-14T18:52:56.128Z,98047.33
2023-04-14T18:55:57.992Z,98049.78
2023-04-14T18:58:59.952Z,98050.13
2023-04-14T19:02:02.216Z,98051.85
2023-04-14T19:05:04.468Z,98048.08
2023-04-14T19:08:06.390Z,98042.58
2023-04-14T19:11:08.120Z,98045.34
2023-04-14T19:14:09.733Z,98045.71
2023-04-14T19:17:11.642Z,98041.25
2023-04-14T19:20:13.453Z,98049.92
2023-04-14T19:23:15.085Z,98047.91
2023-04-14T19:26:16.976Z,98046.13
2023-04-14T19:29:18.559Z,98048.23
2023-04-14T19:32:20.230Z,98048.17
2023-04-14T19:35:21.937Z,98044.72
2023-04-14T19:38:26.739Z,98045.21
2023-04-14T19:41:28.495Z,98046.09
2023-04-14T19:44:30.210Z,98050.06
2023-04-14T19:47:31.902Z,98049.88
2023-04-14T19:50:33.621Z,98053.77
2023-04-14T19:53:35.365Z,98063.19
2023-04-14T19:56:37.764Z,98051.61
2023-04-14T19:59:39.720Z,98063.73
2023-04-14T20:02:41.620Z,98065.10
2023-04-14T20:05:43.332Z,98066.75
2023-04-14T20:08:45.643Z,98069.52
2023-04-14T20:11:47.319Z,98075.00
2023-04-14T20:14:48.888Z,98070.40
2023-04-14T20:17:50.723Z,98066.02
2023-04-14T20:20:52.300Z,98076.75
2023-04-14T20:23:53.949Z,98077.75
2023-04-14T20:26:55.568Z,98080.77
2023-04-14T20:29:57.415Z,98079.63
2023-04-14T20:33:00.900Z,98076.66
2023-04-14T20:36:02.726Z,98076.95
2023-04-14T20:39:05.396Z,98065.50
2023-04-14T20:42:06.987Z,98069.50
2023-04-14T20:45:09.005Z,98071.29
2023-04-14T20:48:10.587Z,98072.69
2023-04-14T20:51:12.266Z,98073.30
2023-04-14T20:54:16.176Z,98081.54
2023-04-14T20:57:17.865Z,98094.41
2023-04-14T21:00:19.581Z,98090.33
2023-04-14T21:03:21.337Z,98094.98
2023-04-14T21:06:23.491Z,98095.45
2023-04-14T21:09:25.187Z,98106.67
2023-04-14T21:12:35.243Z,98102.55
2023-04-14T21:15:52.077Z,98112.25
2023-04-14T21:18:58.886Z,98116.10
2023-04-14T21:22:00.668Z,98122.46
2023-04-14T21:25:02.430Z,98115.41
2023-04-14T21:28:04.326Z,98117.76
2023-04-14T21:31:06.579Z,98113.61
2023-04-14T21:34:08.415Z,98112.16
2023-04-14T21:37:10.533Z,98109.63
2023-04-14T21:40:12.561Z,98110.63
2023-04-14T21:43:14.242Z,98104.43
2023-04-14T21:46:16.006Z,98105.88
2023-04-14T21:49:17.875Z,98108.91
2023-04-14T21:52:19.499Z,98118.61
2023-04-14T21:55:21.101Z,98117.27
2023-04-14T21:58:22.852Z,98109.30
2023-04-14T22:01:24.822Z,98111.67
2023-04-14T22:04:35.838Z,98113.90
2023-04-14T22:07:38.830Z,98116.77
2023-04-14T22:10:40.491Z,98121.83
2023-04-14T22:13:42.303Z,98131.33
2023-04-14T22:16:44.112Z,98144.36
2023-04-14T22:19:45.701Z,98151.58
2023-04-14T22:22:47.615Z,98152.09
2023-04-14T22:25:49.214Z,98155.41
2023-04-14T22:28:51.006Z,98149.92
2023-04-14T22:31:52.779Z,98146.19
2023-04-14T22:34:54.653Z,98148.02
2023-04-14T22:37:56.521Z,98152.70
2023-04-14T22:40:58.314Z,98156.65
2023-04-14T22:44:00.144Z,98164.41
2023-04-14T22:47:01.883Z,98164.73
2023-04-14T22:50:03.616Z,98157.55
2023-04-14T22:53:05.694Z,98152.19
2023-04-14T22:56:07.440Z,98150.98
2023-04-14T22:59:09.031Z,98166.42
2023-04-14T23:02:10.947Z,98180.49
2023-04-14T23:05:13.171Z,98184.24
2023-04-14T23:08:14.884Z,98178.97
2023-04-14T23:11:19.158Z,98173.31
2023-04-14T23:14:22.121Z,98157.98
2023-04-14T23:17:23.804Z,98137.42
2023-04-14T23:20:25.507Z,98143.52
2023-04-14T23:23:30.336Z,98165.41
2023-04-14T23:26:32.072Z,98158.70
2023-04-14T23:29:33.701Z,98161.85
2023-04-14T23:32:35.376Z,98153.80
2023-04-14T23:35:37.105Z,98143.84
2023-04-14T23:38:38.742Z,98150.08
2023-04-14T23:41:40.436Z,98159.33
2023-04-14T23:44:42.302Z,98163.54
2023-04-14T23:47:43.971Z,98176.01
2023-04-14T23:51:00.375Z,98184.90
2023-04-14T23:54:07.160Z,98192.10
2023-04-14T23:57:08.974Z,98187.45
